x

Edisto - 41 Nm Southeast Of Charleston, Sc (41004) Wave Buoy

7:50pm - Sat 29th Aug 2015 All times are EDT. -4 hours from GMT.

  • Sig Wave height 3.6ft
  • Swell Direction
  • Peak Period 11s
  • Average Period 5s
  • Wind
    16mph, 18mph gusts
  • Sea Temp 85°f
  • Air Temp 81°f
  • Sea Pressure 1018.4mb
  • Edisto - 41 Nm Southeast Of Charleston, Sc
  • Edisto - 41 Nm Southeast Of Charleston, Sc

More Historic Weather Station data

Upgrade to MSW Pro to gain access to the past 30 days of data for over 8000 Wavebouys and Weather Stations around the globe.

Join Pro

Comparision Forecast

View Surf forecast
   
Sat 08/29 7:50pm 3.5ft 11s 5s 16 18 mph 1018.4mb 85f 81f
6:50pm 3.5ft 11s 5s 16 18 mph 1018.3mb 85f 80f
5:50pm 3.5ft 9s 5s 13 16 mph 1018.6mb 85f 80f
4:50pm 4ft 11s 5s 16 18 mph 1018.9mb 85f 80f
3:50pm 4.5ft 6s 5s 18
mph
1019.4mb 85f 80f
2:50pm 4.5ft 11s 5s 16 18 mph 1020.1mb 85f 80f
1:50pm 4.5ft 6s 5s 16 20 mph 1020.5mb 85f 80f
12:50pm 4.5ft 6s 5s 18 20 mph 1020.6mb 85f 80f
11:50am 4.5ft 6s 5s 16 20 mph 1020.6mb 85f 81f
10:50am 4.5ft 7s 5s 9 11 mph 1020.8mb 85f 81f
9:50am 4.5ft 5s 5s 13 20 mph 1020.3mb 85f 81f
8:50am 4ft 7s 5s 16 20 mph 1019.7mb 85f 81f
7:50am 3.5ft 8s 5s 18 20 mph 1019.7mb 85f 81f
6:50am 3.5ft 7s 5s 18 20 mph 1019mb 85f 80f
5:50am 4.5ft 6s 5s 16 20 mph 1018.3mb 84f 81f
4:50am 4ft 6s 5s 16 18 mph 1018.4mb 84f 81f
3:50am 4.5ft 6s 5s 18 20 mph 1018.4mb 84f 80f
2:50am 5ft 6s 5s 20 25 mph 1018.7mb 84f 80f
1:50am 6ft 6s 5s 20 25 mph 1019mb 84f 81f
12:50am 5ft 6s 5s 22 25 mph 1019.1mb 84f 81f
Fri 08/28 11:50pm 5.5ft 6s 5s 20 25 mph 1019.3mb 84f 81f
10:50pm 5ft 7s 5s 16 20 mph 1019.4mb 84f 82f
9:50pm 5.5ft 6s 5s 16 20 mph 1019.1mb 84f 81f
8:50pm 5.5ft 6s 5s 20 22 mph 1018.3mb 84f 81f
7:50pm 5ft 6s 5s 22 27 mph 1017.8mb 84f 81f
6:50pm 4.5ft 6s 5s 25 29 mph 1017.5mb 84f 81f
5:50pm 4.5ft 5s 5s 22 27 mph 1017.4mb 84f 80f
4:50pm 3.5ft 5s 4s 22 25 mph 1017.3mb 85f 80f
3:50pm 3ft 5s 4s 18 22 mph 1018.1mb 85f 78f
2:50pm 3ft 5s 5s 13 16 mph 1018.6mb 85f 82f
1:50pm 3ft 5s 5s 11 16 mph 1018.8mb 85f 82f
12:50pm 2.5ft 8s 5s 9 13 mph 1018.9mb 85f 82f
11:50am 2.5ft 8s 5s 9
mph
1019mb 85f 81f
10:50am 2.5ft 8s 5s 11 16 mph 1018.6mb 84f 81f
9:50am 2.5ft 9s 5s 11 13 mph 1018mb 84f 81f
8:50am 2.5ft 5s 5s 9 11 mph 1017.6mb 84f 81f
7:50am 2.5ft 9s 5s 9 11 mph 1017.2mb 84f 81f
6:50am 2.5ft 9s 5s 9
mph
1016.5mb 84f 81f
5:50am 3ft 9s 5s 9 11 mph 1016.1mb 84f 81f
4:50am 2.5ft 9s 5s 4 7 mph 1015.8mb 84f 82f
3:50am 2.5ft 9s 5s 4 7 mph 1015.8mb 84f 82f
2:50am 2.5ft 9s 5s  -  mph 1016.1mb 84f 82f
1:50am 2.5ft 9s 5s 2 4 mph 1016.5mb 84f 82f
12:50am 2.5ft 9s 5s 2 4 mph 1016.7mb 85f 82f
Thu 08/27 11:50pm 2.5ft 9s 5s 4 7 mph 1016.7mb 85f 82f
10:50pm 2.5ft 10s 5s 4
mph
1016.5mb 85f 82f
9:50pm 2.5ft 10s 5s 7 9 mph 1016.2mb 85f 82f
8:50pm 2.5ft 10s 6s 4 7 mph 1015.3mb 85f 82f
7:50pm 2.5ft 10s 6s 4 7 mph 1015.2mb 85f 82f
6:50pm 2ft 10s 6s 2 4 mph 1014.8mb 85f 82f
5:50pm 2.5ft 10s 6s 4 7 mph 1014.7mb 85f 82f
4:50pm 2.5ft 10s 5s 4 7 mph 1014.5mb 85f 82f
3:50pm 3ft 10s 5s 4 7 mph 1014.5mb 85f 81f
2:50pm 3ft 10s 5s 7 9 mph 1014.9mb 85f 81f
1:50pm 3.5ft 10s 5s 4
mph
1015mb 85f 81f
12:50pm 3.5ft 10s 5s 2 4 mph 1015.2mb 84f 82f
11:50am 4.5ft 10s 5s 9
mph
1015.3mb 84f 81f
10:50am 3.5ft 11s 5s 16 20 mph 1015.6mb 84f 80f
9:50am 2.5ft 10s 5s 18 20 mph 1015.2mb 84f 80f
8:50am 2.5ft 10s 6s 16 20 mph 1013.4mb 84f 81f
7:50am 2.5ft 10s 5s 9 11 mph 1012.9mb 84f 79f
6:50am 2.5ft 11s 4s 7 9 mph 1012.7mb 84f 78f
5:50am 3.5ft 11s 4s 13 20 mph 1013.4mb 85f 79f
4:50am 3.5ft 11s 4s 13 20 mph 1012.9mb 85f 78f
3:50am 3.5ft 4s 4s 16 18 mph 1012.5mb 85f 81f
2:50am 3.5ft 10s 4s 22 25 mph 1012.3mb 85f 81f
1:50am 2.5ft 11s 5s 25 29 mph 1012.4mb 85f 82f
12:50am 2.5ft 11s 6s 13 16 mph 1013.3mb 85f 85f
Wed 08/26 11:50pm 2.5ft 11s 6s 7 9 mph 1013.1mb 85f 84f
10:50pm 2.5ft 11s 6s 4 7 mph 1013.6mb 85f 84f
9:50pm 2.5ft 11s 6s 2 4 mph 1013.5mb 85f 84f
8:50pm 2.5ft 11s 5s 7 9 mph 1013.4mb 85f 84f
7:50pm 2.5ft 11s 5s 9 11 mph 1012.4mb 85f 85f
6:50pm 2.5ft 11s 5s 11
mph
1012.2mb 85f 85f
5:50pm 2.5ft 11s 5s 9 11 mph 1011.9mb 85f 85f
4:50pm 2.5ft 10s 5s 9 11 mph 1012.1mb 86f 85f
3:50pm 2.5ft 10s 5s 9 11 mph 1012.4mb 86f 85f
2:50pm 2.5ft 5s 5s 4 7 mph 1013.1mb 86f 84f
1:50pm 3ft 5s 5s 2 4 mph 1013.7mb 85f 82f
12:50pm 3.5ft 5s 5s 2 9 mph 1014.6mb 85f 85f
11:50am 3.5ft 5s 5s 4
mph
1014.5mb 85f 85f
10:50am 4ft 5s 5s 7 9 mph 1013.7mb 85f 84f
9:50am 3.5ft 4s 4s 11 13 mph 1012.5mb 85f 83f
8:50am 3ft 11s 4s 20 25 mph 1013mb 85f 82f
7:50am 3ft 11s 5s 13 16 mph 1012.5mb 85f 84f
6:50am 3ft 11s 5s 16 18 mph 1011.9mb 85f 84f
5:50am 2.5ft 10s 5s 16 18 mph 1011.4mb 85f 84f
4:50am 3ft 11s 5s 13
mph
1010.6mb 84f 85f
3:50am 2.5ft 11s 4s 13 16 mph 1010.8mb 84f 85f
2:50am 2.5ft 10s 5s 13 16 mph 1010.9mb 84f 85f
1:50am 2.5ft 10s 5s 13 18 mph 1011.7mb 85f 85f
12:50am 2.5ft 11s 5s 13 16 mph 1012.1mb 85f 84f